createdAt,value
2024-02-17T00:00:09.432Z,7.28
2024-02-17T00:02:36.428Z,8.10
2024-02-17T00:05:04.050Z,8.93
2024-02-17T00:07:31.160Z,9.55
2024-02-17T00:09:58.339Z,7.60
2024-02-17T00:12:25.532Z,8.20
2024-02-17T00:14:52.591Z,7.33
2024-02-17T00:17:20.331Z,8.80
2024-02-17T00:19:48.350Z,8.68
2024-02-17T00:22:17.308Z,9.83
2024-02-17T00:24:44.500Z,8.40
2024-02-17T00:27:11.653Z,9.50
2024-02-17T00:29:38.560Z,9.40
2024-02-17T00:32:05.787Z,9.10
2024-02-17T00:34:33.000Z,9.85
2024-02-17T00:37:00.357Z,11.85
2024-02-17T00:39:27.603Z,10.38
2024-02-17T00:41:55.354Z,9.23
2024-02-17T00:44:25.469Z,10.93
2024-02-17T00:46:53.121Z,9.23
2024-02-17T00:49:20.557Z,10.48
2024-02-17T00:51:47.640Z,11.50
2024-02-17T00:54:14.567Z,9.85
2024-02-17T00:56:41.645Z,10.07
2024-02-17T00:59:08.585Z,10.00
2024-02-17T01:01:39.621Z,10.90
2024-02-17T01:04:08.739Z,10.55
2024-02-17T01:06:36.153Z,11.90
2024-02-17T01:09:03.582Z,10.63
2024-02-17T01:11:30.671Z,10.02
2024-02-17T01:13:57.797Z,9.55
2024-02-17T01:16:24.785Z,10.77
2024-02-17T01:18:51.906Z,10.02
2024-02-17T01:21:19.565Z,10.83
2024-02-17T01:23:46.656Z,9.77
2024-02-17T01:26:13.808Z,11.02
2024-02-17T01:28:40.741Z,11.98
2024-02-17T01:31:07.662Z,12.52
2024-02-17T01:33:34.541Z,10.65
2024-02-17T01:36:01.542Z,13.10
2024-02-17T01:38:28.459Z,10.23
2024-02-17T01:40:55.658Z,10.77
2024-02-17T01:43:22.714Z,10.40
2024-02-17T01:45:50.231Z,12.32
2024-02-17T01:48:17.659Z,11.80
2024-02-17T01:50:45.900Z,12.82
2024-02-17T01:53:12.978Z,12.75
2024-02-17T01:55:40.634Z,13.32
2024-02-17T01:58:08.215Z,15.18
2024-02-17T02:00:35.930Z,14.93
2024-02-17T02:03:03.998Z,12.60
2024-02-17T02:05:31.221Z,14.85
2024-02-17T02:07:58.337Z,14.93
2024-02-17T02:10:25.269Z,14.63
2024-02-17T02:12:52.343Z,14.40
2024-02-17T02:15:24.661Z,15.37
2024-02-17T02:17:54.303Z,17.05
2024-02-17T02:20:22.386Z,18.43
2024-02-17T02:22:49.380Z,16.30
2024-02-17T02:25:26.323Z,19.67
2024-02-17T02:27:57.378Z,17.63
2024-02-17T02:30:24.630Z,19.03
2024-02-17T02:32:58.808Z,18.08
2024-02-17T02:35:26.009Z,20.50
2024-02-17T02:37:52.960Z,22.05
2024-02-17T02:40:19.935Z,19.17
2024-02-17T02:42:47.225Z,20.65
2024-02-17T02:45:14.401Z,19.90
2024-02-17T02:47:41.584Z,20.00
2024-02-17T02:50:09.902Z,22.08
2024-02-17T02:52:37.085Z,22.10
2024-02-17T02:55:04.145Z,24.70
2024-02-17T02:57:31.176Z,20.27
2024-02-17T02:59:59.259Z,22.02
2024-02-17T03:02:26.577Z,22.23
2024-02-17T03:04:54.836Z,20.37
2024-02-17T03:07:22.370Z,20.80
2024-02-17T03:09:49.458Z,19.95
2024-02-17T03:12:16.583Z,19.50
2024-02-17T03:14:43.608Z,21.90
2024-02-17T03:17:10.734Z,20.60
2024-02-17T03:19:37.823Z,20.67
2024-02-17T03:22:04.858Z,21.42
2024-02-17T03:24:31.919Z,19.95
2024-02-17T03:26:58.986Z,20.10
2024-02-17T03:29:25.939Z,18.95
2024-02-17T03:31:52.872Z,18.17
2024-02-17T03:34:19.881Z,19.97
2024-02-17T03:36:47.200Z,20.38
2024-02-17T03:39:16.577Z,23.05
2024-02-17T03:41:43.635Z,20.60
2024-02-17T03:44:10.582Z,20.15
2024-02-17T03:46:37.476Z,20.95
2024-02-17T03:49:04.540Z,20.10
2024-02-17T03:51:31.650Z,22.48
2024-02-17T03:53:58.641Z,22.05
2024-02-17T03:56:26.239Z,25.70
2024-02-17T03:58:54.029Z,20.33
2024-02-17T04:01:21.923Z,21.23
2024-02-17T04:03:48.818Z,23.90
2024-02-17T04:06:15.940Z,21.98
2024-02-17T04:08:42.863Z,21.23
2024-02-17T04:11:10.643Z,23.42
2024-02-17T04:13:37.684Z,21.10
2024-02-17T04:16:04.796Z,24.65
2024-02-17T04:18:31.840Z,24.00
2024-02-17T04:20:58.839Z,20.63
2024-02-17T04:23:25.825Z,21.88
2024-02-17T04:25:52.712Z,22.17
2024-02-17T04:28:19.717Z,22.60
2024-02-17T04:30:46.649Z,21.23
2024-02-17T04:33:13.776Z,22.15
2024-02-17T04:35:40.841Z,21.67
2024-02-17T04:38:10.783Z,21.52
2024-02-17T04:40:37.801Z,21.88
2024-02-17T04:43:04.909Z,25.67
2024-02-17T04:45:32.064Z,24.20
2024-02-17T04:47:59.030Z,25.33
2024-02-17T04:50:25.950Z,24.43
2024-02-17T04:52:53.360Z,23.50
2024-02-17T04:55:20.233Z,22.02
2024-02-17T04:57:47.330Z,23.27
2024-02-17T05:00:14.739Z,21.63
2024-02-17T05:02:41.668Z,25.67
2024-02-17T05:05:09.292Z,23.40
2024-02-17T05:07:36.245Z,24.58
2024-02-17T05:10:04.145Z,25.15
2024-02-17T05:12:31.276Z,22.05
2024-02-17T05:14:58.284Z,23.50
2024-02-17T05:17:25.467Z,24.02
2024-02-17T05:19:53.177Z,25.52
2024-02-17T05:22:20.228Z,25.17
2024-02-17T05:24:47.317Z,23.05
2024-02-17T05:27:14.865Z,23.83
2024-02-17T05:29:42.291Z,23.73
2024-02-17T05:32:09.497Z,22.02
2024-02-17T05:34:37.980Z,24.98
2024-02-17T05:37:06.008Z,25.08
2024-02-17T05:39:33.948Z,22.73
2024-02-17T05:42:01.423Z,24.07
2024-02-17T05:44:29.215Z,24.40
2024-02-17T05:46:56.452Z,24.05
2024-02-17T05:49:24.421Z,19.95
2024-02-17T05:51:53.010Z,25.90
2024-02-17T05:54:21.088Z,22.02
2024-02-17T05:56:50.262Z,25.02
2024-02-17T05:59:17.280Z,23.38
2024-02-17T06:01:44.453Z,23.35
2024-02-17T06:04:11.867Z,21.98
2024-02-17T06:06:38.943Z,22.42
2024-02-17T06:09:05.999Z,23.98
2024-02-17T06:11:33.351Z,23.70
2024-02-17T06:14:00.433Z,24.75
2024-02-17T06:16:28.698Z,26.92
2024-02-17T06:19:14.566Z,26.75
2024-02-17T06:21:41.603Z,24.25
2024-02-17T06:24:08.685Z,25.33
2024-02-17T06:26:37.165Z,25.15
2024-02-17T06:29:07.360Z,24.17
2024-02-17T06:31:38.025Z,21.45
2024-02-17T06:34:07.379Z,24.85
2024-02-17T06:36:34.782Z,24.05
2024-02-17T06:39:01.693Z,22.77
2024-02-17T06:41:28.793Z,21.52
2024-02-17T06:43:55.963Z,22.02
2024-02-17T06:46:22.888Z,21.17
2024-02-17T06:48:52.694Z,24.27
2024-02-17T06:51:21.517Z,24.95
2024-02-17T06:53:49.008Z,21.20
2024-02-17T06:56:16.816Z,23.40
2024-02-17T06:58:43.829Z,23.40
2024-02-17T07:01:11.370Z,22.90
2024-02-17T07:03:39.096Z,25.63
2024-02-17T07:06:06.879Z,23.67
2024-02-17T07:08:34.209Z,26.40
2024-02-17T07:11:01.695Z,21.58
2024-02-17T07:13:29.065Z,22.55
2024-02-17T07:15:56.165Z,23.33
2024-02-17T07:18:23.492Z,23.05
2024-02-17T07:20:53.525Z,23.27
2024-02-17T07:23:22.498Z,27.45
2024-02-17T07:25:49.615Z,24.43
2024-02-17T07:28:41.869Z,22.90
2024-02-17T07:31:11.718Z,25.40
2024-02-17T07:33:39.515Z,23.30
2024-02-17T07:36:06.878Z,22.33
2024-02-17T07:38:33.903Z,24.00
2024-02-17T07:41:00.793Z,26.90
2024-02-17T07:43:27.668Z,23.80
2024-02-17T07:45:54.615Z,26.02
2024-02-17T07:48:21.853Z,23.13
2024-02-17T07:50:49.013Z,26.75
2024-02-17T07:53:15.891Z,24.45
2024-02-17T07:55:43.239Z,26.47
2024-02-17T07:58:10.092Z,22.38
2024-02-17T08:00:37.350Z,24.30
2024-02-17T08:03:04.494Z,25.90
2024-02-17T08:05:31.635Z,23.08
2024-02-17T08:07:58.638Z,25.50
2024-02-17T08:10:25.684Z,25.15
2024-02-17T08:12:52.838Z,24.65
2024-02-17T08:15:19.951Z,24.48
2024-02-17T08:17:47.300Z,28.70
2024-02-17T08:20:14.679Z,26.33
2024-02-17T08:22:41.725Z,26.10
2024-02-17T08:25:10.422Z,26.60
2024-02-17T08:27:37.732Z,23.38
2024-02-17T08:30:05.525Z,25.88
2024-02-17T08:32:33.953Z,24.92
2024-02-17T08:35:01.795Z,25.25
2024-02-17T08:37:28.938Z,26.80
2024-02-17T08:39:55.828Z,21.65
2024-02-17T08:42:23.084Z,22.27
2024-02-17T08:44:54.056Z,22.38
2024-02-17T08:47:22.423Z,23.25
2024-02-17T08:49:50.430Z,20.92
2024-02-17T08:52:17.719Z,24.43
2024-02-17T08:54:44.746Z,20.83
2024-02-17T08:57:11.707Z,20.45
2024-02-17T08:59:38.785Z,24.20
2024-02-17T09:02:05.827Z,19.92
2024-02-17T09:04:32.764Z,22.20
2024-02-17T09:07:00.990Z,21.63
2024-02-17T09:09:29.764Z,20.42
2024-02-17T09:11:56.758Z,22.55
2024-02-17T09:14:23.717Z,20.40
2024-02-17T09:16:50.655Z,22.03
2024-02-17T09:19:17.662Z,24.27
2024-02-17T09:21:44.699Z,20.83
2024-02-17T09:24:11.990Z,21.40
2024-02-17T09:26:38.972Z,22.70
2024-02-17T09:29:05.907Z,22.23
2024-02-17T09:31:35.349Z,18.90
2024-02-17T09:34:03.212Z,23.27
2024-02-17T09:36:31.257Z,21.63
2024-02-17T09:38:58.161Z,18.80
2024-02-17T09:41:25.081Z,24.30
2024-02-17T09:43:52.195Z,21.55
2024-02-17T09:46:19.206Z,24.05
2024-02-17T09:48:46.573Z,19.33
2024-02-17T09:51:14.850Z,21.63
2024-02-17T09:53:41.956Z,22.75
2024-02-17T09:56:08.982Z,23.13
2024-02-17T09:58:36.329Z,24.73
2024-02-17T10:01:03.764Z,22.48
2024-02-17T10:03:31.841Z,21.90
2024-02-17T10:06:14.361Z,25.17
2024-02-17T10:08:42.794Z,22.50
2024-02-17T10:11:13.033Z,21.83
2024-02-17T10:13:42.215Z,24.73
2024-02-17T10:16:14.490Z,22.60
2024-02-17T10:18:45.823Z,21.50
2024-02-17T10:21:13.554Z,23.02
2024-02-17T10:23:40.690Z,23.48
2024-02-17T10:26:08.117Z,21.02
2024-02-17T10:28:35.481Z,21.92
2024-02-17T10:31:06.688Z,20.80
2024-02-17T10:33:33.798Z,18.05
2024-02-17T10:36:02.009Z,18.63
2024-02-17T10:38:30.739Z,16.65
2024-02-17T10:40:57.710Z,16.02
2024-02-17T10:43:24.696Z,15.10
2024-02-17T10:45:56.699Z,18.70
2024-02-17T10:48:27.311Z,13.82
2024-02-17T10:50:54.641Z,14.60
2024-02-17T10:53:44.057Z,12.30
2024-02-17T10:56:16.851Z,11.50
2024-02-17T10:58:47.804Z,15.23
2024-02-17T11:01:18.384Z,12.93
2024-02-17T11:03:46.977Z,11.93
2024-02-17T11:06:18.617Z,13.05
2024-02-17T11:08:45.873Z,13.20
2024-02-17T11:11:25.749Z,14.10
2024-02-17T11:13:54.365Z,13.65
2024-02-17T11:16:21.437Z,13.18
2024-02-17T11:18:54.482Z,13.63
2024-02-17T11:21:27.114Z,13.32
2024-02-17T11:23:59.462Z,14.77
2024-02-17T11:26:33.775Z,13.00
2024-02-17T11:29:07.684Z,14.35
2024-02-17T11:31:34.603Z,16.92
2024-02-17T11:34:04.067Z,15.32
2024-02-17T11:36:35.142Z,14.37
2024-02-17T11:39:02.763Z,13.70
2024-02-17T11:41:30.252Z,15.63
2024-02-17T11:43:57.394Z,10.47
2024-02-17T11:46:24.951Z,13.23
2024-02-17T11:48:52.874Z,12.05
2024-02-17T11:51:27.255Z,14.18
2024-02-17T11:53:57.463Z,7.80
2024-02-17T11:56:25.879Z,13.25
2024-02-17T11:58:55.139Z,11.50
2024-02-17T12:01:22.457Z,8.35
2024-02-17T12:03:49.730Z,10.35
2024-02-17T12:06:17.050Z,11.48
2024-02-17T12:08:44.099Z,10.75
2024-02-17T12:11:11.453Z,9.63
2024-02-17T12:13:38.505Z,8.57
2024-02-17T12:16:11.586Z,8.65
2024-02-17T12:18:40.807Z,11.23
2024-02-17T12:21:11.337Z,8.43
2024-02-17T12:23:41.298Z,8.30
2024-02-17T12:26:16.914Z,8.55
2024-02-17T12:28:52.626Z,10.77
2024-02-17T12:31:21.083Z,7.93
2024-02-17T12:33:49.595Z,9.73
2024-02-17T12:36:18.706Z,8.75
2024-02-17T12:38:45.732Z,8.82
2024-02-17T12:41:15.525Z,9.13
2024-02-17T12:43:48.342Z,9.07
2024-02-17T12:46:20.444Z,7.60
2024-02-17T12:48:50.555Z,8.40
2024-02-17T12:51:20.344Z,9.60
2024-02-17T12:53:49.246Z,9.27
2024-02-17T12:56:22.304Z,7.45
2024-02-17T12:58:52.032Z,7.22
2024-02-17T13:01:20.272Z,5.90
2024-02-17T13:03:47.929Z,8.40
2024-02-17T13:06:15.856Z,5.82
2024-02-17T13:08:43.632Z,8.18
2024-02-17T13:11:10.793Z,9.45
2024-02-17T13:13:38.645Z,8.25
2024-02-17T13:16:06.212Z,6.53
2024-02-17T13:18:35.878Z,6.07
2024-02-17T13:21:04.215Z,10.50
2024-02-17T13:23:31.365Z,5.47
2024-02-17T13:25:58.390Z,6.72
2024-02-17T13:28:25.332Z,9.27
2024-02-17T13:30:53.733Z,5.63
2024-02-17T13:33:21.037Z,5.45
2024-02-17T13:35:49.061Z,7.18
2024-02-17T13:38:25.054Z,6.97
2024-02-17T13:40:57.087Z,7.75
2024-02-17T13:43:24.081Z,7.65
2024-02-17T13:45:52.176Z,9.10
2024-02-17T13:48:19.889Z,9.32
2024-02-17T13:50:48.511Z,9.68
2024-02-17T13:53:15.904Z,8.15
2024-02-17T13:55:44.381Z,7.17
2024-02-17T13:58:12.246Z,9.20
2024-02-17T14:00:40.743Z,7.10
2024-02-17T14:03:08.657Z,6.68
2024-02-17T14:05:35.908Z,5.60
2024-02-17T14:08:02.879Z,6.93
2024-02-17T14:10:29.795Z,6.25
2024-02-17T14:12:56.945Z,6.47
2024-02-17T14:15:24.087Z,7.75
2024-02-17T14:17:51.152Z,7.10
2024-02-17T14:20:18.399Z,5.33
2024-02-17T14:22:45.468Z,5.63
2024-02-17T14:25:14.353Z,5.53
2024-02-17T14:27:41.525Z,7.32
2024-02-17T14:30:09.677Z,10.02
2024-02-17T14:32:36.710Z,6.32
2024-02-17T14:35:06.231Z,6.38
2024-02-17T14:37:33.361Z,7.00
2024-02-17T14:40:00.508Z,7.05
2024-02-17T14:42:27.708Z,6.55
2024-02-17T14:44:54.636Z,8.05
2024-02-17T14:47:24.298Z,6.33
2024-02-17T14:49:53.455Z,6.38
2024-02-17T14:52:20.988Z,6.40
2024-02-17T14:54:48.513Z,6.13
2024-02-17T14:57:15.468Z,6.18
2024-02-17T14:59:42.409Z,6.78
2024-02-17T15:02:09.349Z,6.22
2024-02-17T15:04:36.443Z,7.60
2024-02-17T15:07:03.943Z,5.15
2024-02-17T15:09:31.844Z,8.82
2024-02-17T15:11:59.587Z,7.87
2024-02-17T15:14:28.948Z,6.03
2024-02-17T15:16:56.609Z,7.22
2024-02-17T15:19:24.059Z,5.28
2024-02-17T15:21:51.640Z,4.10
2024-02-17T15:24:18.867Z,5.40
2024-02-17T15:26:46.510Z,5.30
2024-02-17T15:29:13.569Z,4.82
2024-02-17T15:31:40.439Z,4.50
2024-02-17T15:34:07.458Z,5.20
2024-02-17T15:36:34.753Z,6.25
2024-02-17T15:39:01.697Z,4.68
2024-02-17T15:41:28.692Z,6.13
2024-02-17T15:43:55.768Z,5.75
2024-02-17T15:46:23.470Z,4.90
2024-02-17T15:48:50.849Z,6.25
2024-02-17T15:51:18.129Z,4.00
2024-02-17T15:53:45.009Z,5.85
2024-02-17T15:56:12.925Z,3.88
2024-02-17T15:58:40.219Z,5.88
2024-02-17T16:01:08.101Z,5.63
2024-02-17T16:03:35.684Z,3.90
2024-02-17T16:06:09.875Z,5.63
2024-02-17T16:08:38.622Z,4.50
2024-02-17T16:11:06.490Z,3.47
2024-02-17T16:13:34.550Z,4.88
2024-02-17T16:16:01.747Z,3.85
2024-02-17T16:18:31.560Z,3.50
2024-02-17T16:21:02.185Z,4.25
2024-02-17T16:23:32.348Z,4.25
2024-02-17T16:25:59.284Z,4.78
2024-02-17T16:28:26.325Z,3.88
2024-02-17T16:30:55.362Z,5.70
2024-02-17T16:33:25.387Z,3.78
2024-02-17T16:35:52.419Z,6.20
2024-02-17T16:38:19.265Z,7.13
2024-02-17T16:40:46.214Z,8.70
2024-02-17T16:43:13.129Z,11.02
2024-02-17T16:45:40.333Z,13.38
2024-02-17T16:48:08.293Z,21.70
2024-02-17T16:50:35.296Z,13.45
2024-02-17T16:53:02.200Z,8.63
2024-02-17T16:55:29.562Z,7.18
2024-02-17T16:57:56.735Z,4.78
2024-02-17T17:00:24.137Z,3.70
2024-02-17T17:02:51.517Z,5.43
2024-02-17T17:05:19.035Z,6.70
2024-02-17T17:07:46.116Z,6.72
2024-02-17T17:10:13.646Z,7.25
2024-02-17T17:12:40.845Z,4.32
2024-02-17T17:15:09.739Z,4.53
2024-02-17T17:17:37.053Z,5.73
2024-02-17T17:20:05.091Z,4.97
2024-02-17T17:25:03.528Z,10.30
2024-02-17T17:27:31.286Z,5.80
2024-02-17T17:29:58.597Z,5.40
2024-02-17T17:32:25.653Z,5.45
2024-02-17T17:34:52.714Z,4.00
2024-02-17T17:37:20.612Z,4.50
2024-02-17T17:39:47.601Z,4.47
2024-02-17T17:42:14.696Z,5.57
2024-02-17T17:44:41.583Z,6.65
2024-02-17T17:47:08.439Z,5.68
2024-02-17T17:49:35.891Z,5.70
2024-02-17T17:52:03.186Z,5.55
2024-02-17T17:54:30.202Z,5.73
2024-02-17T17:56:57.100Z,7.50
2024-02-17T17:59:23.937Z,9.02
2024-02-17T18:01:50.855Z,14.25
2024-02-17T18:04:17.884Z,17.70
2024-02-17T18:06:45.036Z,14.32
2024-02-17T18:09:12.161Z,14.63
2024-02-17T18:11:39.840Z,13.00
2024-02-17T18:14:06.720Z,11.40
2024-02-17T18:16:33.630Z,8.98
2024-02-17T18:19:00.854Z,10.85
2024-02-17T18:21:27.904Z,11.15
2024-02-17T18:23:54.840Z,11.43
2024-02-17T18:26:21.710Z,11.18
2024-02-17T18:28:48.610Z,9.68
2024-02-17T18:31:15.546Z,12.00
2024-02-17T18:33:44.756Z,12.40
2024-02-17T18:36:18.171Z,8.10
2024-02-17T18:38:45.875Z,8.45
2024-02-17T18:41:14.602Z,10.65
2024-02-17T18:43:43.623Z,8.13
2024-02-17T18:46:11.720Z,8.95
2024-02-17T18:48:39.292Z,8.75
2024-02-17T18:51:08.224Z,9.27
2024-02-17T18:53:37.258Z,11.07
2024-02-17T18:56:04.439Z,9.77
2024-02-17T18:58:31.686Z,7.57
2024-02-17T19:00:58.777Z,8.05
2024-02-17T19:03:25.911Z,6.82
2024-02-17T19:05:52.836Z,9.73
2024-02-17T19:08:19.875Z,9.00
2024-02-17T19:10:46.961Z,10.50
2024-02-17T19:13:14.639Z,10.73
2024-02-17T19:15:41.767Z,8.65
2024-02-17T19:18:08.900Z,9.25
2024-02-17T19:20:35.932Z,9.85
2024-02-17T19:23:08.179Z,9.15
2024-02-17T19:25:36.530Z,10.17
2024-02-17T19:28:04.059Z,13.18
2024-02-17T19:30:31.498Z,16.38
2024-02-17T19:32:58.825Z,17.80
2024-02-17T19:35:25.958Z,16.30
2024-02-17T19:37:53.002Z,16.70
2024-02-17T19:40:20.905Z,13.60
2024-02-17T19:42:48.870Z,14.38
2024-02-17T19:45:15.892Z,17.35
2024-02-17T19:47:43.180Z,14.45
2024-02-17T19:50:11.100Z,13.10
2024-02-17T19:52:38.985Z,12.57
2024-02-17T19:55:06.725Z,14.18
2024-02-17T19:57:35.476Z,12.27
2024-02-17T20:00:03.645Z,13.85
2024-02-17T20:02:31.900Z,12.68
2024-02-17T20:04:59.659Z,14.73
2024-02-17T20:07:28.089Z,13.98
2024-02-17T20:09:55.810Z,11.70
2024-02-17T20:12:26.785Z,14.38
2024-02-17T20:14:54.382Z,11.50
2024-02-17T20:17:29.057Z,14.97
2024-02-17T20:20:04.178Z,15.25
2024-02-17T20:22:31.310Z,16.57
2024-02-17T20:24:59.170Z,17.43
2024-02-17T20:27:28.367Z,19.70
2024-02-17T20:29:55.733Z,16.58
2024-02-17T20:32:22.700Z,18.50
2024-02-17T20:34:49.987Z,15.85
2024-02-17T20:37:17.199Z,17.95
2024-02-17T20:39:44.376Z,18.17
2024-02-17T20:42:11.931Z,16.73
2024-02-17T20:44:43.775Z,18.00
2024-02-17T20:47:10.644Z,18.45
2024-02-17T20:49:38.099Z,17.63
2024-02-17T20:52:05.870Z,18.77
2024-02-17T20:54:33.609Z,19.20
2024-02-17T20:57:05.420Z,16.70
2024-02-17T20:59:32.762Z,18.92
2024-02-17T21:01:59.824Z,19.17
2024-02-17T21:04:31.086Z,18.08
2024-02-17T21:06:59.069Z,17.48
2024-02-17T21:09:26.271Z,16.38
2024-02-17T21:11:53.476Z,19.95
2024-02-17T21:14:20.358Z,17.13
2024-02-17T21:16:53.803Z,15.77
2024-02-17T21:19:20.767Z,16.92
2024-02-17T21:21:47.689Z,17.75
2024-02-17T21:24:14.545Z,16.77
2024-02-17T21:26:41.429Z,16.87
2024-02-17T21:29:08.532Z,16.00
2024-02-17T21:31:35.798Z,15.83
2024-02-17T21:34:02.830Z,14.32
2024-02-17T21:36:30.015Z,14.35
2024-02-17T21:38:57.045Z,13.55
2024-02-17T21:41:23.993Z,15.93
2024-02-17T21:43:50.889Z,17.38
2024-02-17T21:46:18.062Z,16.23
2024-02-17T21:48:45.234Z,17.80
2024-02-17T21:51:17.491Z,16.83
2024-02-17T21:53:45.361Z,16.45
2024-02-17T21:56:12.380Z,15.30
2024-02-17T21:58:39.338Z,14.70
2024-02-17T22:01:06.818Z,19.37
2024-02-17T22:03:34.115Z,19.42
2024-02-17T22:06:01.321Z,16.15
2024-02-17T22:08:29.334Z,18.23
2024-02-17T22:10:56.316Z,16.25
2024-02-17T22:13:23.273Z,16.50
2024-02-17T22:15:50.338Z,16.90
2024-02-17T22:18:17.512Z,21.27
2024-02-17T22:20:44.964Z,19.40
2024-02-17T22:23:13.406Z,18.15
2024-02-17T22:25:41.847Z,17.70
2024-02-17T22:28:10.162Z,17.42
2024-02-17T22:30:37.107Z,18.95
2024-02-17T22:33:04.475Z,21.65
2024-02-17T22:35:31.646Z,18.70
2024-02-17T22:38:03.611Z,19.60
2024-02-17T22:40:32.399Z,20.60
2024-02-17T22:43:01.619Z,21.58
2024-02-17T22:45:30.130Z,20.92
2024-02-17T22:47:57.520Z,17.95
2024-02-17T22:50:24.549Z,18.70
2024-02-17T22:52:51.536Z,18.53
2024-02-17T22:55:18.452Z,17.57
2024-02-17T22:57:45.949Z,16.40
2024-02-17T23:00:22.934Z,19.05
2024-02-17T23:02:51.274Z,17.10
2024-02-17T23:05:20.365Z,17.83
2024-02-17T23:07:47.898Z,18.17
2024-02-17T23:10:15.242Z,15.63
2024-02-17T23:12:42.412Z,15.50
2024-02-17T23:15:10.932Z,20.10
2024-02-17T23:17:39.074Z,19.20
2024-02-17T23:20:07.643Z,17.88
2024-02-17T23:22:35.184Z,17.48
2024-02-17T23:25:02.351Z,18.63
2024-02-17T23:27:29.542Z,15.85
2024-02-17T23:29:56.519Z,15.60
2024-02-17T23:32:23.432Z,15.50
2024-02-17T23:34:50.904Z,16.98
2024-02-17T23:37:18.038Z,16.23
2024-02-17T23:39:46.692Z,15.43
2024-02-17T23:42:13.876Z,14.35
2024-02-17T23:44:40.832Z,16.55
2024-02-17T23:47:07.833Z,14.50
2024-02-17T23:49:35.439Z,15.13
2024-02-17T23:52:03.779Z,20.17
2024-02-17T23:54:31.012Z,19.10
2024-02-17T23:56:59.069Z,19.98
2024-02-17T23:59:26.173Z,19.00
